Accueil
METAR-TAF:

METAR-TAF

Aéroports :

Aéroport de Toulouse-Blagnac

Toulouse, France

latitude: 43-38N, longitude: 001-22E, altitude: 152 m

Observation

Le bulletin a été fait il y a 32 minutes, à 03:30 UTC
Vent 4 kt de ouest/nord-ouest, variant entre ouest/sud-ouest et nord-ouest
Température 19°C
Humidité 64%
Pression 1022 hPa
Visibilité 10 km ou plus
pas de nuages en-dessous de 1500 mètres et pas de cumulonimbus.

METAR: LFBO 060330Z AUTO 29004KT 250V320 CAVOK 19/12 Q1022 NOSIG

Heure: 06:02 (04:02 UTC)

Prévision

Le bulletin a été fait il y a 5 heures et 2 minutes, à 23:00 UTC
Prévision valable du 06 à 00 UTC au 07 à 06 UTC
Vent 8 kt de nord-ouest
Visibilité 10 km ou plus
pas de nuages en-dessous de 1500 mètres et pas de cumulonimbus.

TAF: LFBO 052300Z 0600/0706 32008KT CAVOK

Observations et prévisions météorologiques de plus de 4000 aéroports (messages METAR et TAF).

Les stations disponibles sont représentées par des disques jaunes et rouges sur la carte.

Passer la souris dessus pour voir le nom de la station.

Cliquer dessus pour voir les observations et prévisions météorologiques.

Pour changer de carte: cliquez sur les boutons verts avec une croix noire pour zoomer, sur le bouton vert avec un tiret pour effectuer un zoom arrière, ou sur les flèches vertes pour les cartes adjacentes.


METAR-TAF: